sensor_id;sensor_type;location;lat;lon;timestamp;temperature;humidity
67890;DHT22;54685;52.082;5.426;2022-10-29T00:02:05;13.70;99.90
67890;DHT22;54685;52.082;5.426;2022-10-29T00:04:32;13.70;99.90
67890;DHT22;54685;52.082;5.426;2022-10-29T00:06:59;13.70;99.90
67890;DHT22;54685;52.082;5.426;2022-10-29T00:09:25;13.70;99.90
67890;DHT22;54685;52.082;5.426;2022-10-29T00:11:52;13.70;99.90
67890;DHT22;54685;52.082;5.426;2022-10-29T00:14:19;13.70;99.90
67890;DHT22;54685;52.082;5.426;2022-10-29T00:16:46;13.70;99.90
67890;DHT22;54685;52.082;5.426;2022-10-29T00:19:13;13.70;99.90
67890;DHT22;54685;52.082;5.426;2022-10-29T00:21:40;13.70;99.90
67890;DHT22;54685;52.082;5.426;2022-10-29T00:24:09;13.60;99.90
67890;DHT22;54685;52.082;5.426;2022-10-29T00:26:36;13.60;99.90
67890;DHT22;54685;52.082;5.426;2022-10-29T00:29:03;13.60;99.90
67890;DHT22;54685;52.082;5.426;2022-10-29T00:31:29;13.60;99.90
67890;DHT22;54685;52.082;5.426;2022-10-29T00:33:57;13.60;99.90
67890;DHT22;54685;52.082;5.426;2022-10-29T00:36:26;13.60;99.90
67890;DHT22;54685;52.082;5.426;2022-10-29T00:38:53;13.60;99.90
67890;DHT22;54685;52.082;5.426;2022-10-29T00:41:26;13.60;99.90
67890;DHT22;54685;52.082;5.426;2022-10-29T00:46:51;13.70;99.90
67890;DHT22;54685;52.082;5.426;2022-10-29T00:49:21;13.60;99.90
67890;DHT22;54685;52.082;5.426;2022-10-29T00:51:51;13.60;99.90
67890;DHT22;54685;52.082;5.426;2022-10-29T00:54:18;13.60;99.90
67890;DHT22;54685;52.082;5.426;2022-10-29T00:56:49;13.50;99.90
67890;DHT22;54685;52.082;5.426;2022-10-29T00:59:17;13.50;99.90
67890;DHT22;54685;52.082;5.426;2022-10-29T01:01:45;13.40;99.90
67890;DHT22;54685;52.082;5.426;2022-10-29T01:04:15;13.40;99.90
67890;DHT22;54685;52.082;5.426;2022-10-29T01:06:42;13.50;99.90
67890;DHT22;54685;52.082;5.426;2022-10-29T01:09:10;13.50;99.90
67890;DHT22;54685;52.082;5.426;2022-10-29T01:17:44;13.50;99.90
67890;DHT22;54685;52.082;5.426;2022-10-29T01:28:19;13.30;99.90
67890;DHT22;54685;52.082;5.426;2022-10-29T01:33:39;13.30;99.90
67890;DHT22;54685;52.082;5.426;2022-10-29T01:36:18;13.20;99.90
67890;DHT22;54685;52.082;5.426;2022-10-29T01:38:52;13.20;99.90
67890;DHT22;54685;52.082;5.426;2022-10-29T01:46:39;13.10;99.90
67890;DHT22;54685;52.082;5.426;2022-10-29T01:49:12;13.10;99.90
67890;DHT22;54685;52.082;5.426;2022-10-29T01:51:40;13.00;99.90
67890;DHT22;54685;52.082;5.426;2022-10-29T01:54:10;13.00;99.90
67890;DHT22;54685;52.082;5.426;2022-10-29T01:56:37;13.00;99.90
67890;DHT22;54685;52.082;5.426;2022-10-29T01:59:07;13.00;99.90
67890;DHT22;54685;52.082;5.426;2022-10-29T02:04:36;13.00;99.90
67890;DHT22;54685;52.082;5.426;2022-10-29T02:07:18;13.00;99.90
67890;DHT22;54685;52.082;5.426;2022-10-29T02:09:57;12.90;99.90
67890;DHT22;54685;52.082;5.426;2022-10-29T02:12:30;12.90;99.90
67890;DHT22;54685;52.082;5.426;2022-10-29T02:15:34;12.90;99.90
67890;DHT22;54685;52.082;5.426;2022-10-29T02:18:04;12.80;99.90
67890;DHT22;54685;52.082;5.426;2022-10-29T02:20:31;12.80;99.90
67890;DHT22;54685;52.082;5.426;2022-10-29T02:22:59;12.80;99.90
67890;DHT22;54685;52.082;5.426;2022-10-29T02:25:26;12.70;99.90
67890;DHT22;54685;52.082;5.426;2022-10-29T02:27:57;12.70;99.90
67890;DHT22;54685;52.082;5.426;2022-10-29T02:30:24;12.70;99.90
67890;DHT22;54685;52.082;5.426;2022-10-29T02:32:51;12.70;99.90
67890;DHT22;54685;52.082;5.426;2022-10-29T02:35:18;12.70;99.90
67890;DHT22;54685;52.082;5.426;2022-10-29T02:37:44;12.70;99.90
67890;DHT22;54685;52.082;5.426;2022-10-29T02:40:12;12.70;99.90
67890;DHT22;54685;52.082;5.426;2022-10-29T02:42:38;12.70;99.90
67890;DHT22;54685;52.082;5.426;2022-10-29T02:45:06;12.70;99.90
67890;DHT22;54685;52.082;5.426;2022-10-29T02:47:33;12.70;99.90
67890;DHT22;54685;52.082;5.426;2022-10-29T02:50:00;12.70;99.90
67890;DHT22;54685;52.082;5.426;2022-10-29T02:52:26;12.70;99.90
67890;DHT22;54685;52.082;5.426;2022-10-29T02:54:53;12.70;99.90
67890;DHT22;54685;52.082;5.426;2022-10-29T02:57:20;12.70;99.90
67890;DHT22;54685;52.082;5.426;2022-10-29T02:59:47;12.70;99.90
67890;DHT22;54685;52.082;5.426;2022-10-29T03:02:14;12.70;99.90
67890;DHT22;54685;52.082;5.426;2022-10-29T03:04:41;12.70;99.90
67890;DHT22;54685;52.082;5.426;2022-10-29T03:07:09;12.80;99.90
67890;DHT22;54685;52.082;5.426;2022-10-29T03:09:36;12.80;99.90
67890;DHT22;54685;52.082;5.426;2022-10-29T03:12:03;12.80;99.90
67890;DHT22;54685;52.082;5.426;2022-10-29T03:14:30;12.70;99.90
67890;DHT22;54685;52.082;5.426;2022-10-29T03:16:57;12.70;99.90
67890;DHT22;54685;52.082;5.426;2022-10-29T03:19:24;12.80;99.90
67890;DHT22;54685;52.082;5.426;2022-10-29T03:21:50;12.80;99.90
67890;DHT22;54685;52.082;5.426;2022-10-29T03:24:17;12.80;99.90
67890;DHT22;54685;52.082;5.426;2022-10-29T03:26:44;12.80;99.90
67890;DHT22;54685;52.082;5.426;2022-10-29T03:29:11;12.80;99.90
67890;DHT22;54685;52.082;5.426;2022-10-29T03:31:37;12.90;99.90
67890;DHT22;54685;52.082;5.426;2022-10-29T03:34:04;12.90;99.90
67890;DHT22;54685;52.082;5.426;2022-10-29T03:36:31;12.80;99.90
67890;DHT22;54685;52.082;5.426;2022-10-29T03:38:58;12.80;99.90
67890;DHT22;54685;52.082;5.426;2022-10-29T03:41:25;12.80;99.90
67890;DHT22;54685;52.082;5.426;2022-10-29T03:43:51;12.80;99.90
67890;DHT22;54685;52.082;5.426;2022-10-29T03:46:18;12.80;99.90
67890;DHT22;54685;52.082;5.426;2022-10-29T03:48:48;12.80;99.90
67890;DHT22;54685;52.082;5.426;2022-10-29T03:51:14;12.80;99.90
67890;DHT22;54685;52.082;5.426;2022-10-29T03:53:41;12.80;99.90
67890;DHT22;54685;52.082;5.426;2022-10-29T03:56:08;12.80;99.90
67890;DHT22;54685;52.082;5.426;2022-10-29T03:58:36;12.80;99.90
67890;DHT22;54685;52.082;5.426;2022-10-29T04:01:05;12.80;99.90
67890;DHT22;54685;52.082;5.426;2022-10-29T04:03:33;12.80;99.90
67890;DHT22;54685;52.082;5.426;2022-10-29T04:06:06;12.80;99.90
67890;DHT22;54685;52.082;5.426;2022-10-29T04:08:34;12.70;99.90
67890;DHT22;54685;52.082;5.426;2022-10-29T04:11:00;12.70;99.90
67890;DHT22;54685;52.082;5.426;2022-10-29T04:13:27;12.70;99.90
67890;DHT22;54685;52.082;5.426;2022-10-29T04:15:54;12.70;99.90
67890;DHT22;54685;52.082;5.426;2022-10-29T04:18:23;12.70;99.90
67890;DHT22;54685;52.082;5.426;2022-10-29T04:20:49;12.70;99.90
67890;DHT22;54685;52.082;5.426;2022-10-29T04:23:36;12.70;99.90
67890;DHT22;54685;52.082;5.426;2022-10-29T04:26:23;12.60;99.90
67890;DHT22;54685;52.082;5.426;2022-10-29T04:29:10;12.60;99.90
67890;DHT22;54685;52.082;5.426;2022-10-29T04:31:37;12.60;99.90
67890;DHT22;54685;52.082;5.426;2022-10-29T04:34:04;12.60;99.90
67890;DHT22;54685;52.082;5.426;2022-10-29T04:36:31;12.50;99.90
67890;DHT22;54685;52.082;5.426;2022-10-29T04:38:58;12.60;99.90
67890;DHT22;54685;52.082;5.426;2022-10-29T04:41:24;12.60;99.90
67890;DHT22;54685;52.082;5.426;2022-10-29T04:43:51;12.50;99.90
67890;DHT22;54685;52.082;5.426;2022-10-29T04:46:18;12.50;99.90
67890;DHT22;54685;52.082;5.426;2022-10-29T04:48:45;12.50;99.90
67890;DHT22;54685;52.082;5.426;2022-10-29T04:51:22;12.50;99.90
67890;DHT22;54685;52.082;5.426;2022-10-29T04:53:49;12.50;99.90
67890;DHT22;54685;52.082;5.426;2022-10-29T04:56:17;12.40;99.90
67890;DHT22;54685;52.082;5.426;2022-10-29T04:58:44;12.40;99.90
67890;DHT22;54685;52.082;5.426;2022-10-29T05:01:11;12.40;99.90
67890;DHT22;54685;52.082;5.426;2022-10-29T05:03:38;12.40;99.90
67890;DHT22;54685;52.082;5.426;2022-10-29T05:06:05;12.40;99.90
67890;DHT22;54685;52.082;5.426;2022-10-29T05:08:32;12.40;99.90
67890;DHT22;54685;52.082;5.426;2022-10-29T05:11:03;12.40;99.90
67890;DHT22;54685;52.082;5.426;2022-10-29T05:13:31;12.40;99.90
67890;DHT22;54685;52.082;5.426;2022-10-29T05:15:58;12.40;99.90
67890;DHT22;54685;52.082;5.426;2022-10-29T05:18:25;12.40;99.90
67890;DHT22;54685;52.082;5.426;2022-10-29T05:20:56;12.40;99.90
67890;DHT22;54685;52.082;5.426;2022-10-29T05:23:23;12.50;99.90
67890;DHT22;54685;52.082;5.426;2022-10-29T05:25:50;12.50;99.90
67890;DHT22;54685;52.082;5.426;2022-10-29T05:28:19;12.40;99.90
67890;DHT22;54685;52.082;5.426;2022-10-29T05:30:48;12.50;99.90
67890;DHT22;54685;52.082;5.426;2022-10-29T05:33:20;12.50;99.90
67890;DHT22;54685;52.082;5.426;2022-10-29T05:35:48;12.50;99.90
67890;DHT22;54685;52.082;5.426;2022-10-29T05:38:15;12.50;99.90
67890;DHT22;54685;52.082;5.426;2022-10-29T05:40:42;12.50;99.90
67890;DHT22;54685;52.082;5.426;2022-10-29T05:43:12;12.60;99.90
67890;DHT22;54685;52.082;5.426;2022-10-29T05:45:39;12.60;99.90
67890;DHT22;54685;52.082;5.426;2022-10-29T05:48:07;12.70;99.90
67890;DHT22;54685;52.082;5.426;2022-10-29T05:50:35;12.70;99.90
67890;DHT22;54685;52.082;5.426;2022-10-29T05:53:06;12.70;99.90
67890;DHT22;54685;52.082;5.426;2022-10-29T05:55:34;12.80;99.90
67890;DHT22;54685;52.082;5.426;2022-10-29T05:58:03;12.80;99.90
67890;DHT22;54685;52.082;5.426;2022-10-29T06:00:33;12.80;99.90
67890;DHT22;54685;52.082;5.426;2022-10-29T06:03:00;12.80;99.90
67890;DHT22;54685;52.082;5.426;2022-10-29T06:05:27;12.80;99.90
67890;DHT22;54685;52.082;5.426;2022-10-29T06:07:58;12.90;99.90
67890;DHT22;54685;52.082;5.426;2022-10-29T06:10:28;12.90;99.90
67890;DHT22;54685;52.082;5.426;2022-10-29T06:12:55;12.90;99.90
67890;DHT22;54685;52.082;5.426;2022-10-29T06:15:22;12.90;99.90
67890;DHT22;54685;52.082;5.426;2022-10-29T06:17:49;12.90;99.90
67890;DHT22;54685;52.082;5.426;2022-10-29T06:20:18;13.00;99.90
67890;DHT22;54685;52.082;5.426;2022-10-29T06:22:46;13.00;99.90
67890;DHT22;54685;52.082;5.426;2022-10-29T06:25:13;13.00;99.90
67890;DHT22;54685;52.082;5.426;2022-10-29T06:27:40;13.00;99.90
67890;DHT22;54685;52.082;5.426;2022-10-29T06:30:08;13.00;99.90
67890;DHT22;54685;52.082;5.426;2022-10-29T06:32:35;13.00;99.90
67890;DHT22;54685;52.082;5.426;2022-10-29T06:35:02;13.10;99.90
67890;DHT22;54685;52.082;5.426;2022-10-29T06:37:29;13.00;99.90
67890;DHT22;54685;52.082;5.426;2022-10-29T06:39:58;13.10;99.90
67890;DHT22;54685;52.082;5.426;2022-10-29T06:42:25;13.10;99.90
67890;DHT22;54685;52.082;5.426;2022-10-29T06:44:52;13.10;99.90
67890;DHT22;54685;52.082;5.426;2022-10-29T06:47:19;13.10;99.90
67890;DHT22;54685;52.082;5.426;2022-10-29T06:49:45;13.10;99.90
67890;DHT22;54685;52.082;5.426;2022-10-29T06:52:12;13.20;99.90
67890;DHT22;54685;52.082;5.426;2022-10-29T06:54:39;13.20;99.90
67890;DHT22;54685;52.082;5.426;2022-10-29T06:57:06;13.20;99.90
67890;DHT22;54685;52.082;5.426;2022-10-29T06:59:33;13.20;99.90
67890;DHT22;54685;52.082;5.426;2022-10-29T07:01:59;13.20;99.90
67890;DHT22;54685;52.082;5.426;2022-10-29T07:04:26;13.30;99.90
67890;DHT22;54685;52.082;5.426;2022-10-29T07:06:53;13.20;99.90
67890;DHT22;54685;52.082;5.426;2022-10-29T07:09:20;13.30;99.90
67890;DHT22;54685;52.082;5.426;2022-10-29T07:11:47;13.30;99.90
67890;DHT22;54685;52.082;5.426;2022-10-29T07:14:13;13.30;99.90
67890;DHT22;54685;52.082;5.426;2022-10-29T07:16:40;13.30;99.90
67890;DHT22;54685;52.082;5.426;2022-10-29T07:19:07;13.40;99.90
67890;DHT22;54685;52.082;5.426;2022-10-29T07:21:34;13.40;99.90
67890;DHT22;54685;52.082;5.426;2022-10-29T07:24:00;13.40;99.90
67890;DHT22;54685;52.082;5.426;2022-10-29T07:26:27;13.40;99.90
67890;DHT22;54685;52.082;5.426;2022-10-29T07:28:54;13.50;99.90
67890;DHT22;54685;52.082;5.426;2022-10-29T07:31:23;13.50;99.90
67890;DHT22;54685;52.082;5.426;2022-10-29T07:33:50;13.50;99.90
67890;DHT22;54685;52.082;5.426;2022-10-29T07:36:17;13.60;99.90
67890;DHT22;54685;52.082;5.426;2022-10-29T07:38:44;13.60;99.90
67890;DHT22;54685;52.082;5.426;2022-10-29T07:41:10;13.70;99.90
67890;DHT22;54685;52.082;5.426;2022-10-29T07:43:37;13.70;99.90
67890;DHT22;54685;52.082;5.426;2022-10-29T07:46:04;13.80;99.90
67890;DHT22;54685;52.082;5.426;2022-10-29T07:48:31;13.80;99.90
67890;DHT22;54685;52.082;5.426;2022-10-29T07:50:59;13.90;99.90
67890;DHT22;54685;52.082;5.426;2022-10-29T07:53:26;13.90;99.90
67890;DHT22;54685;52.082;5.426;2022-10-29T07:55:57;14.00;99.90
67890;DHT22;54685;52.082;5.426;2022-10-29T07:58:25;14.10;99.90
67890;DHT22;54685;52.082;5.426;2022-10-29T08:00:52;14.10;99.90
67890;DHT22;54685;52.082;5.426;2022-10-29T08:03:20;14.20;99.90
67890;DHT22;54685;52.082;5.426;2022-10-29T08:05:47;14.30;99.90
67890;DHT22;54685;52.082;5.426;2022-10-29T08:08:22;14.40;99.90
67890;DHT22;54685;52.082;5.426;2022-10-29T08:10:48;14.50;99.90
67890;DHT22;54685;52.082;5.426;2022-10-29T08:13:15;14.60;99.90
67890;DHT22;54685;52.082;5.426;2022-10-29T08:15:45;14.70;99.90
67890;DHT22;54685;52.082;5.426;2022-10-29T08:18:15;14.70;99.90
67890;DHT22;54685;52.082;5.426;2022-10-29T08:20:43;14.80;99.90
67890;DHT22;54685;52.082;5.426;2022-10-29T08:23:10;14.90;99.90
67890;DHT22;54685;52.082;5.426;2022-10-29T08:25:38;15.00;99.90
67890;DHT22;54685;52.082;5.426;2022-10-29T08:28:10;15.20;99.90
67890;DHT22;54685;52.082;5.426;2022-10-29T08:30:37;15.30;99.90
67890;DHT22;54685;52.082;5.426;2022-10-29T08:33:05;15.40;99.90
67890;DHT22;54685;52.082;5.426;2022-10-29T08:35:34;15.50;99.90
67890;DHT22;54685;52.082;5.426;2022-10-29T08:38:01;15.60;99.90
67890;DHT22;54685;52.082;5.426;2022-10-29T08:46:01;15.80;99.90
67890;DHT22;54685;52.082;5.426;2022-10-29T08:49:34;15.90;99.90
67890;DHT22;54685;52.082;5.426;2022-10-29T08:51:32;16.00;99.90
67890;DHT22;54685;52.082;5.426;2022-10-29T08:54:00;16.10;99.90
67890;DHT22;54685;52.082;5.426;2022-10-29T08:56:54;16.20;99.90
67890;DHT22;54685;52.082;5.426;2022-10-29T08:59:24;16.20;99.90
67890;DHT22;54685;52.082;5.426;2022-10-29T09:01:52;16.40;99.90
67890;DHT22;54685;52.082;5.426;2022-10-29T09:04:26;16.50;99.90
67890;DHT22;54685;52.082;5.426;2022-10-29T09:07:18;16.60;99.90
67890;DHT22;54685;52.082;5.426;2022-10-29T09:10:11;16.70;99.90
67890;DHT22;54685;52.082;5.426;2022-10-29T09:19:47;16.90;99.90
67890;DHT22;54685;52.082;5.426;2022-10-29T09:25:21;16.90;99.90
67890;DHT22;54685;52.082;5.426;2022-10-29T09:30:29;16.90;99.90
67890;DHT22;54685;52.082;5.426;2022-10-29T09:33:04;17.00;99.90
67890;DHT22;54685;52.082;5.426;2022-10-29T09:35:38;17.00;99.90
67890;DHT22;54685;52.082;5.426;2022-10-29T09:38:13;17.00;99.90
67890;DHT22;54685;52.082;5.426;2022-10-29T09:40:41;17.00;99.90
67890;DHT22;54685;52.082;5.426;2022-10-29T09:43:21;17.10;99.90
67890;DHT22;54685;52.082;5.426;2022-10-29T09:45:56;17.10;99.90
67890;DHT22;54685;52.082;5.426;2022-10-29T09:51:45;17.10;99.90
67890;DHT22;54685;52.082;5.426;2022-10-29T09:54:14;17.10;99.90
67890;DHT22;54685;52.082;5.426;2022-10-29T09:56:44;17.10;99.90
67890;DHT22;54685;52.082;5.426;2022-10-29T09:59:36;17.10;99.90
67890;DHT22;54685;52.082;5.426;2022-10-29T10:03:03;17.10;99.90
67890;DHT22;54685;52.082;5.426;2022-10-29T10:05:14;17.10;99.90
67890;DHT22;54685;52.082;5.426;2022-10-29T10:07:41;17.10;99.90
67890;DHT22;54685;52.082;5.426;2022-10-29T10:10:20;17.10;99.90
67890;DHT22;54685;52.082;5.426;2022-10-29T10:12:49;17.10;99.90
67890;DHT22;54685;52.082;5.426;2022-10-29T10:15:19;17.10;99.90
67890;DHT22;54685;52.082;5.426;2022-10-29T10:18:05;17.10;99.90
67890;DHT22;54685;52.082;5.426;2022-10-29T10:20:41;17.20;99.90
67890;DHT22;54685;52.082;5.426;2022-10-29T10:23:26;17.20;99.90
67890;DHT22;54685;52.082;5.426;2022-10-29T10:25:55;17.30;99.90
67890;DHT22;54685;52.082;5.426;2022-10-29T10:28:31;17.60;99.90
67890;DHT22;54685;52.082;5.426;2022-10-29T10:33:31;18.60;99.90
67890;DHT22;54685;52.082;5.426;2022-10-29T10:36:05;18.80;99.90
67890;DHT22;54685;52.082;5.426;2022-10-29T10:38:41;18.80;99.90
67890;DHT22;54685;52.082;5.426;2022-10-29T10:41:10;18.80;99.90
67890;DHT22;54685;52.082;5.426;2022-10-29T10:43:44;18.80;99.90
67890;DHT22;54685;52.082;5.426;2022-10-29T10:46:18;18.90;99.90
67890;DHT22;54685;52.082;5.426;2022-10-29T10:48:58;19.10;99.90
67890;DHT22;54685;52.082;5.426;2022-10-29T10:51:31;19.40;99.90
67890;DHT22;54685;52.082;5.426;2022-10-29T10:54:00;19.50;99.90
67890;DHT22;54685;52.082;5.426;2022-10-29T10:56:29;19.40;99.90
67890;DHT22;54685;52.082;5.426;2022-10-29T10:59:02;19.30;99.90
67890;DHT22;54685;52.082;5.426;2022-10-29T11:01:33;19.30;99.90
67890;DHT22;54685;52.082;5.426;2022-10-29T11:06:38;19.30;99.90
67890;DHT22;54685;52.082;5.426;2022-10-29T11:14:47;19.70;99.90
67890;DHT22;54685;52.082;5.426;2022-10-29T11:17:52;19.70;99.90
67890;DHT22;54685;52.082;5.426;2022-10-29T11:20:25;19.80;99.90
67890;DHT22;54685;52.082;5.426;2022-10-29T11:26:14;20.10;99.90
67890;DHT22;54685;52.082;5.426;2022-10-29T11:29:07;20.20;99.90
67890;DHT22;54685;52.082;5.426;2022-10-29T11:32:21;20.30;99.90
67890;DHT22;54685;52.082;5.426;2022-10-29T11:35:08;20.30;99.90
67890;DHT22;54685;52.082;5.426;2022-10-29T11:40:11;20.50;99.90
67890;DHT22;54685;52.082;5.426;2022-10-29T11:42:39;20.50;99.90
67890;DHT22;54685;52.082;5.426;2022-10-29T11:45:11;20.50;99.90
67890;DHT22;54685;52.082;5.426;2022-10-29T11:47:44;20.50;99.90
67890;DHT22;54685;52.082;5.426;2022-10-29T11:50:26;20.40;99.90
67890;DHT22;54685;52.082;5.426;2022-10-29T11:53:22;20.30;99.90
67890;DHT22;54685;52.082;5.426;2022-10-29T11:58:34;20.20;99.90
67890;DHT22;54685;52.082;5.426;2022-10-29T12:04:07;20.20;99.90
67890;DHT22;54685;52.082;5.426;2022-10-29T12:09:37;20.30;99.90
67890;DHT22;54685;52.082;5.426;2022-10-29T12:17:25;20.50;99.90
67890;DHT22;54685;52.082;5.426;2022-10-29T12:20:18;20.60;99.90
67890;DHT22;54685;52.082;5.426;2022-10-29T12:23:02;20.60;99.90
67890;DHT22;54685;52.082;5.426;2022-10-29T12:25:59;20.70;99.90
67890;DHT22;54685;52.082;5.426;2022-10-29T12:28:48;20.70;99.90
67890;DHT22;54685;52.082;5.426;2022-10-29T12:34:06;20.80;99.90
67890;DHT22;54685;52.082;5.426;2022-10-29T12:36:53;20.90;99.90
67890;DHT22;54685;52.082;5.426;2022-10-29T12:39:29;20.90;99.90
67890;DHT22;54685;52.082;5.426;2022-10-29T12:42:11;21.00;99.90
67890;DHT22;54685;52.082;5.426;2022-10-29T12:44:49;21.10;99.90
67890;DHT22;54685;52.082;5.426;2022-10-29T12:47:24;21.10;99.90
67890;DHT22;54685;52.082;5.426;2022-10-29T12:53:06;21.10;99.90
67890;DHT22;54685;52.082;5.426;2022-10-29T12:55:35;21.10;99.90
67890;DHT22;54685;52.082;5.426;2022-10-29T13:04:32;21.00;99.90
67890;DHT22;54685;52.082;5.426;2022-10-29T13:09:38;20.90;99.90
67890;DHT22;54685;52.082;5.426;2022-10-29T13:12:11;20.90;99.90
67890;DHT22;54685;52.082;5.426;2022-10-29T13:17:30;20.90;99.90
67890;DHT22;54685;52.082;5.426;2022-10-29T13:20:05;21.00;99.90
67890;DHT22;54685;52.082;5.426;2022-10-29T13:30:38;21.10;99.90
67890;DHT22;54685;52.082;5.426;2022-10-29T13:41:35;21.00;99.90
67890;DHT22;54685;52.082;5.426;2022-10-29T13:44:17;21.10;99.90
67890;DHT22;54685;52.082;5.426;2022-10-29T13:46:59;21.10;99.90
67890;DHT22;54685;52.082;5.426;2022-10-29T13:49:30;21.20;99.90
67890;DHT22;54685;52.082;5.426;2022-10-29T13:52:02;21.20;99.90
67890;DHT22;54685;52.082;5.426;2022-10-29T13:54:59;21.10;99.90
67890;DHT22;54685;52.082;5.426;2022-10-29T13:57:36;21.10;99.90
67890;DHT22;54685;52.082;5.426;2022-10-29T14:07:49;21.20;99.90
67890;DHT22;54685;52.082;5.426;2022-10-29T14:10:21;21.20;99.90
67890;DHT22;54685;52.082;5.426;2022-10-29T14:12:54;21.10;99.90
67890;DHT22;54685;52.082;5.426;2022-10-29T14:15:23;21.10;99.90
67890;DHT22;54685;52.082;5.426;2022-10-29T14:17:50;21.00;99.90
67890;DHT22;54685;52.082;5.426;2022-10-29T14:20:27;21.00;99.90
67890;DHT22;54685;52.082;5.426;2022-10-29T14:22:54;20.90;99.90
67890;DHT22;54685;52.082;5.426;2022-10-29T14:25:34;20.90;99.90
67890;DHT22;54685;52.082;5.426;2022-10-29T14:28:27;20.90;99.90
67890;DHT22;54685;52.082;5.426;2022-10-29T14:31:13;20.80;99.90
67890;DHT22;54685;52.082;5.426;2022-10-29T14:33:45;20.80;99.90
67890;DHT22;54685;52.082;5.426;2022-10-29T14:38:56;20.70;99.90
67890;DHT22;54685;52.082;5.426;2022-10-29T14:41:24;20.70;99.90
67890;DHT22;54685;52.082;5.426;2022-10-29T14:44:15;20.70;99.90
67890;DHT22;54685;52.082;5.426;2022-10-29T14:47:05;20.70;99.90
67890;DHT22;54685;52.082;5.426;2022-10-29T14:49:38;20.60;99.90
67890;DHT22;54685;52.082;5.426;2022-10-29T14:52:24;20.70;99.90
67890;DHT22;54685;52.082;5.426;2022-10-29T14:54:52;20.60;99.90
67890;DHT22;54685;52.082;5.426;2022-10-29T14:57:21;20.50;99.90
67890;DHT22;54685;52.082;5.426;2022-10-29T14:59:52;20.50;99.90
67890;DHT22;54685;52.082;5.426;2022-10-29T15:02:20;20.50;99.90
67890;DHT22;54685;52.082;5.426;2022-10-29T15:07:46;20.40;99.90
67890;DHT22;54685;52.082;5.426;2022-10-29T15:10:21;20.40;99.90
67890;DHT22;54685;52.082;5.426;2022-10-29T15:12:50;20.30;99.90
67890;DHT22;54685;52.082;5.426;2022-10-29T15:17:54;20.20;99.90
67890;DHT22;54685;52.082;5.426;2022-10-29T15:22:54;20.20;99.90
67890;DHT22;54685;52.082;5.426;2022-10-29T15:25:34;20.20;99.90
67890;DHT22;54685;52.082;5.426;2022-10-29T15:28:02;20.20;99.90
67890;DHT22;54685;52.082;5.426;2022-10-29T15:30:34;20.10;99.90
67890;DHT22;54685;52.082;5.426;2022-10-29T15:33:03;20.10;99.90
67890;DHT22;54685;52.082;5.426;2022-10-29T15:35:34;20.10;99.90
67890;DHT22;54685;52.082;5.426;2022-10-29T15:38:02;20.00;99.90
67890;DHT22;54685;52.082;5.426;2022-10-29T15:40:29;20.00;99.90
67890;DHT22;54685;52.082;5.426;2022-10-29T15:43:28;20.00;99.90
67890;DHT22;54685;52.082;5.426;2022-10-29T15:45:56;19.90;99.90
67890;DHT22;54685;52.082;5.426;2022-10-29T15:48:28;19.90;99.90
67890;DHT22;54685;52.082;5.426;2022-10-29T15:51:01;19.90;99.90
67890;DHT22;54685;52.082;5.426;2022-10-29T15:53:29;19.80;99.90
67890;DHT22;54685;52.082;5.426;2022-10-29T15:55:56;19.80;99.90
67890;DHT22;54685;52.082;5.426;2022-10-29T15:58:23;19.80;99.90
67890;DHT22;54685;52.082;5.426;2022-10-29T16:00:50;19.80;99.90
67890;DHT22;54685;52.082;5.426;2022-10-29T16:03:25;19.70;99.90
67890;DHT22;54685;52.082;5.426;2022-10-29T16:06:02;19.60;99.90
67890;DHT22;54685;52.082;5.426;2022-10-29T16:08:44;19.60;99.90
67890;DHT22;54685;52.082;5.426;2022-10-29T16:11:15;19.50;99.90
67890;DHT22;54685;52.082;5.426;2022-10-29T16:13:42;19.40;99.90
67890;DHT22;54685;52.082;5.426;2022-10-29T16:16:15;19.40;99.90
67890;DHT22;54685;52.082;5.426;2022-10-29T16:18:43;19.40;99.90
67890;DHT22;54685;52.082;5.426;2022-10-29T16:21:19;19.30;99.90
67890;DHT22;54685;52.082;5.426;2022-10-29T16:23:47;19.30;99.90
67890;DHT22;54685;52.082;5.426;2022-10-29T16:26:17;19.20;99.90
67890;DHT22;54685;52.082;5.426;2022-10-29T16:28:44;19.20;99.90
67890;DHT22;54685;52.082;5.426;2022-10-29T16:31:17;19.10;99.90
67890;DHT22;54685;52.082;5.426;2022-10-29T16:33:50;19.10;99.90
67890;DHT22;54685;52.082;5.426;2022-10-29T16:36:17;19.00;99.90
67890;DHT22;54685;52.082;5.426;2022-10-29T16:38:44;19.00;99.90
67890;DHT22;54685;52.082;5.426;2022-10-29T16:41:17;19.00;99.90
67890;DHT22;54685;52.082;5.426;2022-10-29T16:43:44;19.00;99.90
67890;DHT22;54685;52.082;5.426;2022-10-29T16:46:12;19.00;99.90
67890;DHT22;54685;52.082;5.426;2022-10-29T16:48:39;18.90;99.90
67890;DHT22;54685;52.082;5.426;2022-10-29T16:51:06;18.90;99.90
67890;DHT22;54685;52.082;5.426;2022-10-29T16:53:33;18.90;99.90
67890;DHT22;54685;52.082;5.426;2022-10-29T16:56:00;18.90;99.90
67890;DHT22;54685;52.082;5.426;2022-10-29T16:58:27;18.90;99.90
67890;DHT22;54685;52.082;5.426;2022-10-29T17:01:03;18.90;99.90
67890;DHT22;54685;52.082;5.426;2022-10-29T17:03:30;18.90;99.90
67890;DHT22;54685;52.082;5.426;2022-10-29T17:06:07;18.90;99.90
67890;DHT22;54685;52.082;5.426;2022-10-29T17:08:35;18.80;99.90
67890;DHT22;54685;52.082;5.426;2022-10-29T17:11:03;18.80;99.90
67890;DHT22;54685;52.082;5.426;2022-10-29T17:13:33;18.80;99.90
67890;DHT22;54685;52.082;5.426;2022-10-29T17:16:00;18.80;99.90
67890;DHT22;54685;52.082;5.426;2022-10-29T17:18:26;18.80;99.90
67890;DHT22;54685;52.082;5.426;2022-10-29T17:20:57;18.70;99.90
67890;DHT22;54685;52.082;5.426;2022-10-29T17:23:25;18.70;99.90
67890;DHT22;54685;52.082;5.426;2022-10-29T17:25:53;18.70;99.90
67890;DHT22;54685;52.082;5.426;2022-10-29T17:28:24;18.70;99.90
67890;DHT22;54685;52.082;5.426;2022-10-29T17:30:51;18.70;99.90
67890;DHT22;54685;52.082;5.426;2022-10-29T17:33:18;18.70;99.90
67890;DHT22;54685;52.082;5.426;2022-10-29T17:35:45;18.60;99.90
67890;DHT22;54685;52.082;5.426;2022-10-29T17:38:12;18.60;99.90
67890;DHT22;54685;52.082;5.426;2022-10-29T17:40:42;18.60;99.90
67890;DHT22;54685;52.082;5.426;2022-10-29T17:43:09;18.60;99.90
67890;DHT22;54685;52.082;5.426;2022-10-29T17:45:36;18.60;99.90
67890;DHT22;54685;52.082;5.426;2022-10-29T17:48:03;18.50;99.90
67890;DHT22;54685;52.082;5.426;2022-10-29T17:50:30;18.50;99.90
67890;DHT22;54685;52.082;5.426;2022-10-29T17:52:57;18.40;99.90
67890;DHT22;54685;52.082;5.426;2022-10-29T17:55:24;18.40;99.90
67890;DHT22;54685;52.082;5.426;2022-10-29T17:57:50;18.40;99.90
67890;DHT22;54685;52.082;5.426;2022-10-29T18:00:17;18.40;99.90
67890;DHT22;54685;52.082;5.426;2022-10-29T18:02:47;18.30;99.90
67890;DHT22;54685;52.082;5.426;2022-10-29T18:05:16;18.30;99.90
67890;DHT22;54685;52.082;5.426;2022-10-29T18:07:42;18.20;99.90